Sam Holmes — WDH8629 — position and weather

sailwx.info

Track history (hours):
 
Tides and Currents Weather Stations Pressure Air Temp Water Temp Dewpoint Dewpoint Depression Visibility Wind Speed Wind Dir Waves Ship Positions

Sam Holmes

Owner: NYCL Acquisition LLC, Brooklyn, NY. More information available from US FCC via Universal Licensing System and Coast Guard Vessel Documentation Center.

Last reported at 2018-Jun-18 15:00 UTC. Time now 2018-Aug-15 02:59 UTC.
Position N 40°40' W 074°01'.
Warning: this ship's position is 57 days out of date.

Date/timePositionNaut miles runAvg speedWind from/ knotsBaromVisibWave heightAir tempDewpointWater temp
2018-Jun-18 15:00N 40°40' W 074°01'0 0.0
2018-Jun-18 14:30N 40°40' W 074°01'0 0.0
2018-Jun-18 14:00N 40°40' W 074°01'0 0.0
2018-Jun-18 13:30N 40°40' W 074°01'0 0.0
2018-Jun-18 13:00N 40°40' W 074°01'0 0.0
2018-Jun-18 12:30N 40°40' W 074°01'0 0.0
2018-Jun-18 12:00N 40°40' W 074°01'0 0.0
2018-Jun-18 00:02N 40°40' W 074°01'0 0.0
2018-Jun-18 00:00N 40°40' W 074°01'2 4.5
2018-Jun-17 23:31N 40°42' W 073°60'5 8.7
2018-Jun-17 22:59N 40°46' W 073°56'2 4.5
2018-Jun-17 22:30N 40°45' W 073°58'2 4.3
2018-Jun-17 22:00N 40°43' W 073°59'4 7.0
2018-Jun-17 21:23N 40°46' W 073°56'2 6.2
2018-Jun-17 21:00N 40°45' W 073°58'0 0.0
2018-Jun-17 20:25N 40°45' W 073°58'0 0.6
2018-Jun-17 19:36N 40°45' W 073°58'210.9
2018-Jun-17 19:23N 40°43' W 073°59'2 4.8
2018-Jun-17 18:54N 40°45' W 073°58'1 1.9
2018-Jun-17 18:19N 40°46' W 073°57'2 6.6
2018-Jun-17 17:58N 40°44' W 073°58'2 1.8
2018-Jun-17 16:47N 40°45' W 073°57'4 9.9
2018-Jun-17 16:23N 40°42' W 074°00'1 2.3
2018-Jun-17 16:01N 40°41' W 074°01'1 0.1
2018-Jun-16 23:24N 40°40' W 074°01'1 1.6
2018-Jun-16 23:00N 40°41' W 074°01'4 7.3
2018-Jun-16 22:30N 40°45' W 074°01'4 7.2
2018-Jun-16 22:00N 40°41' W 074°03'2 3.2
2018-Jun-16 21:31N 40°42' W 074°01'2 3.3
2018-Jun-16 21:00N 40°44' W 074°01'2 3.7
2018-Jun-16 20:30N 40°42' W 074°00'3 6.8
2018-Jun-16 20:00N 40°46' W 074°00'4 8.7
2018-Jun-16 19:31N 40°42' W 074°02'1 1.8
2018-Jun-16 19:01N 40°42' W 074°01'0 0.8
2018-Jun-16 18:31N 40°42' W 074°02'1 2.6
2018-Jun-16 18:00N 40°42' W 074°00'4 7.2
2018-Jun-16 17:30N 40°46' W 074°00'4 7.1
2018-Jun-16 17:00N 40°42' W 073°60'3 5.3
2018-Jun-16 16:30N 40°45' W 074°01'4 7.4
2018-Jun-16 16:00N 40°41' W 074°03'2 3.1
2018-Jun-16 15:30N 40°42' W 074°01'2 4.8
2018-Jun-16 15:00N 40°45' W 074°01'2 4.9
2018-Jun-16 14:31N 40°42' W 074°00'3 5.1
2018-Jun-16 13:50N 40°46' W 074°00'517.2
2018-Jun-16 13:30N 40°40' W 074°01'0 0.0
2018-Jun-16 13:00N 40°40' W 074°01'0 0.0
2018-Jun-15 23:59N 40°40' W 074°01'0 0.2
2018-Jun-15 23:30N 40°40' W 074°01'5 9.5
2018-Jun-15 23:01N 40°45' W 074°01'4 7.8
2018-Jun-15 22:31N 40°41' W 074°03'1 2.8
2018-Jun-15 22:00N 40°42' W 074°01'4 7.2
2018-Jun-15 21:30N 40°46' W 074°00'4 8.1
2018-Jun-15 21:00N 40°42' W 074°00'1 1.6
2018-Jun-15 20:30N 40°42' W 074°01'0 0.9
2018-Jun-15 20:00N 40°43' W 074°02'1 2.4
2018-Jun-15 19:30N 40°42' W 074°00'4 7.0
2018-Jun-15 19:00N 40°46' W 074°00'4 7.2
2018-Jun-15 18:30N 40°42' W 073°60'1 2.3
2018-Jun-15 18:01N 40°42' W 074°01'2 3.9
2018-Jun-15 17:30N 40°44' W 074°01'2 4.3
2018-Jun-15 17:00N 40°42' W 074°00'3 7.0
2018-Jun-15 16:30N 40°46' W 074°00'4 9.1
2018-Jun-15 16:01N 40°42' W 074°02'1 2.0
2018-Jun-15 15:31N 40°42' W 074°01'2 3.2
2018-Jun-15 15:01N 40°44' W 074°01'2 3.4
2018-Jun-15 14:30N 40°42' W 074°00'3 6.6
2018-Jun-15 13:59N 40°46' W 074°00'3 6.3
2018-Jun-15 13:31N 40°43' W 074°01'3 5.1
2018-Jun-15 13:00N 40°40' W 074°01'0 0.0
2018-Jun-15 12:30N 40°40' W 074°01'0 0.0
2018-Jun-15 01:12N 40°40' W 074°01'1 4.4
2018-Jun-15 01:00N 40°41' W 074°01'1 2.4
2018-Jun-15 00:30N 40°42' W 074°00'1 2.3
2018-Jun-15 00:00N 40°42' W 073°59'1 2.4
2018-Jun-14 23:30N 40°42' W 074°00'1 2.2
2018-Jun-14 23:00N 40°42' W 073°59'1 2.2
2018-Jun-14 22:30N 40°42' W 074°00'0 0.3
2018-Jun-14 22:00N 40°42' W 073°60'1 2.8
2018-Jun-14 21:31N 40°41' W 074°01'1 1.5
2018-Jun-14 21:00N 40°40' W 074°01'0 0.0
2018-Jun-14 20:30N 40°40' W 074°01'0 0.0
2018-Jun-14 20:00N 40°40' W 074°01'0 0.0
2018-Jun-14 19:30N 40°40' W 074°01'0 0.0
2018-Jun-14 19:00N 40°40' W 074°01'0 0.0
2018-Jun-14 18:30N 40°40' W 074°01'0 0.0
2018-Jun-14 18:00N 40°40' W 074°01'0 0.0
2018-Jun-14 17:30N 40°40' W 074°01'0 0.0
2018-Jun-14 17:00N 40°40' W 074°01'0 0.0
2018-Jun-14 16:29N 40°40' W 074°01'0 0.0
2018-Jun-14 16:00N 40°40' W 074°01'0 0.0
2018-Jun-14 15:30N 40°40' W 074°01'0 0.0
2018-Jun-14 15:00N 40°40' W 074°01'0 0.0
2018-Jun-14 14:30N 40°40' W 074°01'0 0.0
2018-Jun-14 14:00N 40°40' W 074°01'0 0.0
2018-Jun-14 13:30N 40°40' W 074°01'0 0.0
2018-Jun-14 13:00N 40°40' W 074°01'0 0.0
2018-Jun-14 12:30N 40°40' W 074°01'0 0.0
2018-Jun-14 12:00N 40°40' W 074°01'0 0.0
2018-Jun-14 11:30N 40°40' W 074°01'0 0.0
2018-Jun-14 11:00N 40°40' W 074°01'0 0.0
2018-Jun-14 10:31N 40°40' W 074°01'0 0.0
2018-Jun-14 10:00N 40°40' W 074°01'0 0.0
2018-Jun-13 23:50N 40°40' W 074°01'3 8.1
2018-Jun-13 23:30N 40°42' W 073°59'4 7.6
2018-Jun-13 23:00N 40°46' W 073°57'2 3.5
2018-Jun-13 22:30N 40°45' W 073°58'2 4.3
2018-Jun-13 22:00N 40°43' W 073°59'4 7.3
2018-Jun-13 21:26N 40°46' W 073°56'2 5.2
2018-Jun-13 21:00N 40°45' W 073°58'3 5.8
2018-Jun-13 20:30N 40°42' W 074°00'2 3.9
2018-Jun-13 20:00N 40°40' W 074°01'0 0.0
2018-Jun-13 19:30N 40°40' W 074°01'0 0.0
2018-Jun-13 19:00N 40°40' W 074°01'0 0.0
2018-Jun-13 18:30N 40°40' W 074°01'0 0.0
2018-Jun-13 18:00N 40°40' W 074°01'0 0.0
2018-Jun-13 17:30N 40°40' W 074°01'0 0.0
2018-Jun-13 17:00N 40°40' W 074°01'0 0.0
2018-Jun-13 16:30N 40°40' W 074°01'0 0.0
2018-Jun-13 16:00N 40°40' W 074°01'0 0.0
2018-Jun-13 15:30N 40°40' W 074°01'0 0.0
2018-Jun-13 15:00N 40°40' W 074°01'0 0.0
2018-Jun-13 14:30N 40°40' W 074°01'0 0.2
2018-Jun-13 14:00N 40°40' W 074°01'5 9.8
2018-Jun-13 13:30N 40°45' W 073°58'2 4.3
2018-Jun-13 12:59N 40°46' W 073°56'4 7.5
2018-Jun-13 12:31N 40°43' W 073°58'2 3.4
2018-Jun-13 12:00N 40°45' W 073°58'1 2.2
2018-Jun-13 11:31N 40°44' W 073°58'4 5.6
2018-Jun-13 10:47N 40°40' W 074°01'0 0.0
2018-Jun-13 10:31N 40°40' W 074°01'0 0.0
2018-Jun-13 10:00N 40°40' W 074°01'0 0.0
2018-Jun-12 23:44N 40°40' W 074°01'0 0.0
2018-Jun-12 23:30N 40°40' W 074°01'2 4.2
2018-Jun-12 23:01N 40°42' W 074°00'3 5.4
2018-Jun-12 22:22N 40°46' W 074°00'412.3
2018-Jun-12 22:01N 40°42' W 074°02'1 1.5
2018-Jun-12 21:31N 40°42' W 074°01'2 3.4
2018-Jun-12 21:00N 40°44' W 074°01'2 3.6
2018-Jun-12 20:30N 40°42' W 074°00'3 6.7
2018-Jun-12 19:59N 40°46' W 074°00'4 7.4
2018-Jun-12 19:31N 40°42' W 073°60'3 6.7
2018-Jun-12 19:00N 40°46' W 074°01'4 8.6
2018-Jun-12 18:30N 40°41' W 074°02'1 2.4
2018-Jun-12 18:00N 40°42' W 074°01'3 6.6
2018-Jun-12 17:31N 40°45' W 074°01'3 6.6
2018-Jun-12 17:01N 40°42' W 073°60'4 7.0
2018-Jun-12 16:30N 40°46' W 074°00'4 8.6
2018-Jun-12 16:00N 40°42' W 074°02'1 1.9
2018-Jun-12 15:31N 40°42' W 074°01'2 4.4
2018-Jun-12 15:00N 40°44' W 074°01'2 4.4
2018-Jun-12 14:30N 40°42' W 074°00'2 4.2
2018-Jun-12 14:00N 40°40' W 074°01'0 0.0
2018-Jun-12 13:31N 40°40' W 074°01'0 0.0
2018-Jun-12 13:01N 40°40' W 074°01'0 0.0
2018-Jun-12 12:30N 40°40' W 074°01'0 0.0
2018-Jun-12 12:01N 40°40' W 074°01'0 0.0
2018-Jun-11 18:58N 40°40' W 074°01'0 0.0
2018-Jun-11 18:30N 40°40' W 074°01'0 0.0
2018-Jun-11 17:58N 40°40' W 074°01'0 0.0
2018-Jun-11 17:29N 40°40' W 074°01'0 0.0
2018-Jun-11 16:57N 40°40' W 074°01'0 0.0
2018-Jun-10 23:08N 40°40' W 074°01'0 0.0
2018-Jun-10 23:00N 40°40' W 074°01'2 4.0
2018-Jun-10 22:31N 40°42' W 074°01'0 0.8
2018-Jun-10 22:01N 40°42' W 074°02'1 0.9
2018-Jun-10 21:28N 40°42' W 074°01'3 6.6
2018-Jun-10 21:01N 40°45' W 074°01'3 6.1
2018-Jun-10 20:30N 40°42' W 073°60'3 6.8
2018-Jun-10 20:00N 40°46' W 074°01'4 9.1
2018-Jun-10 19:31N 40°41' W 074°02'1 2.8
2018-Jun-10 19:01N 40°42' W 074°01'1 2.2
2018-Jun-10 18:30N 40°43' W 074°01'1 2.8
2018-Jun-10 18:00N 40°42' W 074°00'3 6.0
2018-Jun-10 17:27N 40°46' W 074°00'3 7.7
2018-Jun-10 17:00N 40°42' W 073°60'4 7.0
2018-Jun-10 16:30N 40°46' W 074°00'510.1
2018-Jun-10 16:01N 40°41' W 074°03'2 3.1
2018-Jun-10 15:31N 40°42' W 074°01'2 3.5
2018-Jun-10 15:01N 40°44' W 074°01'2 3.8
2018-Jun-10 14:30N 40°42' W 074°00'2 1.9
2018-Jun-10 13:30N 40°41' W 074°02'1 1.2
2018-Jun-10 13:00N 40°40' W 074°01'0 0.0
2018-Jun-10 12:30N 40°40' W 074°01'  
Track history (hours):
 
Tides and Currents Weather Stations Pressure Air Temp Water Temp Dewpoint Dewpoint Depression Visibility Wind Speed Wind Dir Waves Ship Positions

Sam Holmes

Owner: NYCL Acquisition LLC, Brooklyn, NY. More information available from US FCC via Universal Licensing System and Coast Guard Vessel Documentation Center.

Last reported at 2018-Jun-18 15:00 UTC. Time now 2018-Aug-15 02:59 UTC.
Position N 40°40' W 074°01'.
Warning: this ship's position is 57 days out of date.

Date/timePositionNaut miles runAvg speedWind from/ knotsBaromVisibWave heightAir tempDewpointWater temp
2018-Jun-18 15:00N 40°40' W 074°01'0 0.0
2018-Jun-18 14:30N 40°40' W 074°01'0 0.0
2018-Jun-18 14:00N 40°40' W 074°01'0 0.0
2018-Jun-18 13:30N 40°40' W 074°01'0 0.0
2018-Jun-18 13:00N 40°40' W 074°01'0 0.0
2018-Jun-18 12:30N 40°40' W 074°01'0 0.0
2018-Jun-18 12:00N 40°40' W 074°01'0 0.0
2018-Jun-18 00:02N 40°40' W 074°01'0 0.0
2018-Jun-18 00:00N 40°40' W 074°01'2 4.5
2018-Jun-17 23:31N 40°42' W 073°60'5 8.7
2018-Jun-17 22:59N 40°46' W 073°56'2 4.5
2018-Jun-17 22:30N 40°45' W 073°58'2 4.3
2018-Jun-17 22:00N 40°43' W 073°59'4 7.0
2018-Jun-17 21:23N 40°46' W 073°56'2 6.2
2018-Jun-17 21:00N 40°45' W 073°58'0 0.0
2018-Jun-17 20:25N 40°45' W 073°58'0 0.6
2018-Jun-17 19:36N 40°45' W 073°58'210.9
2018-Jun-17 19:23N 40°43' W 073°59'2 4.8
2018-Jun-17 18:54N 40°45' W 073°58'1 1.9
2018-Jun-17 18:19N 40°46' W 073°57'2 6.6
2018-Jun-17 17:58N 40°44' W 073°58'2 1.8
2018-Jun-17 16:47N 40°45' W 073°57'4 9.9
2018-Jun-17 16:23N 40°42' W 074°00'1 2.3
2018-Jun-17 16:01N 40°41' W 074°01'1 0.1
2018-Jun-16 23:24N 40°40' W 074°01'1 1.6
2018-Jun-16 23:00N 40°41' W 074°01'4 7.3
2018-Jun-16 22:30N 40°45' W 074°01'4 7.2
2018-Jun-16 22:00N 40°41' W 074°03'2 3.2
2018-Jun-16 21:31N 40°42' W 074°01'2 3.3
2018-Jun-16 21:00N 40°44' W 074°01'2 3.7
2018-Jun-16 20:30N 40°42' W 074°00'3 6.8
2018-Jun-16 20:00N 40°46' W 074°00'4 8.7
2018-Jun-16 19:31N 40°42' W 074°02'1 1.8
2018-Jun-16 19:01N 40°42' W 074°01'0 0.8
2018-Jun-16 18:31N 40°42' W 074°02'1 2.6
2018-Jun-16 18:00N 40°42' W 074°00'4 7.2
2018-Jun-16 17:30N 40°46' W 074°00'4 7.1
2018-Jun-16 17:00N 40°42' W 073°60'3 5.3
2018-Jun-16 16:30N 40°45' W 074°01'4 7.4
2018-Jun-16 16:00N 40°41' W 074°03'2 3.1
2018-Jun-16 15:30N 40°42' W 074°01'2 4.8
2018-Jun-16 15:00N 40°45' W 074°01'2 4.9
2018-Jun-16 14:31N 40°42' W 074°00'3 5.1
2018-Jun-16 13:50N 40°46' W 074°00'517.2
2018-Jun-16 13:30N 40°40' W 074°01'0 0.0
2018-Jun-16 13:00N 40°40' W 074°01'0 0.0
2018-Jun-15 23:59N 40°40' W 074°01'0 0.2
2018-Jun-15 23:30N 40°40' W 074°01'5 9.5
2018-Jun-15 23:01N 40°45' W 074°01'4 7.8
2018-Jun-15 22:31N 40°41' W 074°03'1 2.8
2018-Jun-15 22:00N 40°42' W 074°01'4 7.2
2018-Jun-15 21:30N 40°46' W 074°00'4 8.1
2018-Jun-15 21:00N 40°42' W 074°00'1 1.6
2018-Jun-15 20:30N 40°42' W 074°01'0 0.9
2018-Jun-15 20:00N 40°43' W 074°02'1 2.4
2018-Jun-15 19:30N 40°42' W 074°00'4 7.0
2018-Jun-15 19:00N 40°46' W 074°00'4 7.2
2018-Jun-15 18:30N 40°42' W 073°60'1 2.3
2018-Jun-15 18:01N 40°42' W 074°01'2 3.9
2018-Jun-15 17:30N 40°44' W 074°01'2 4.3
2018-Jun-15 17:00N 40°42' W 074°00'3 7.0
2018-Jun-15 16:30N 40°46' W 074°00'4 9.1
2018-Jun-15 16:01N 40°42' W 074°02'1 2.0
2018-Jun-15 15:31N 40°42' W 074°01'2 3.2
2018-Jun-15 15:01N 40°44' W 074°01'2 3.4
2018-Jun-15 14:30N 40°42' W 074°00'3 6.6
2018-Jun-15 13:59N 40°46' W 074°00'3 6.3
2018-Jun-15 13:31N 40°43' W 074°01'3 5.1
2018-Jun-15 13:00N 40°40' W 074°01'0 0.0
2018-Jun-15 12:30N 40°40' W 074°01'0 0.0
2018-Jun-15 01:12N 40°40' W 074°01'1 4.4
2018-Jun-15 01:00N 40°41' W 074°01'1 2.4
2018-Jun-15 00:30N 40°42' W 074°00'1 2.3
2018-Jun-15 00:00N 40°42' W 073°59'1 2.4
2018-Jun-14 23:30N 40°42' W 074°00'1 2.2
2018-Jun-14 23:00N 40°42' W 073°59'1 2.2
2018-Jun-14 22:30N 40°42' W 074°00'0 0.3
2018-Jun-14 22:00N 40°42' W 073°60'1 2.8
2018-Jun-14 21:31N 40°41' W 074°01'1 1.5
2018-Jun-14 21:00N 40°40' W 074°01'0 0.0
2018-Jun-14 20:30N 40°40' W 074°01'0 0.0
2018-Jun-14 20:00N 40°40' W 074°01'0 0.0
2018-Jun-14 19:30N 40°40' W 074°01'0 0.0
2018-Jun-14 19:00N 40°40' W 074°01'0 0.0
2018-Jun-14 18:30N 40°40' W 074°01'0 0.0
2018-Jun-14 18:00N 40°40' W 074°01'0 0.0
2018-Jun-14 17:30N 40°40' W 074°01'0 0.0
2018-Jun-14 17:00N 40°40' W 074°01'0 0.0
2018-Jun-14 16:29N 40°40' W 074°01'0 0.0
2018-Jun-14 16:00N 40°40' W 074°01'0 0.0
2018-Jun-14 15:30N 40°40' W 074°01'0 0.0
2018-Jun-14 15:00N 40°40' W 074°01'0 0.0
2018-Jun-14 14:30N 40°40' W 074°01'0 0.0
2018-Jun-14 14:00N 40°40' W 074°01'0 0.0
2018-Jun-14 13:30N 40°40' W 074°01'0 0.0
2018-Jun-14 13:00N 40°40' W 074°01'0 0.0
2018-Jun-14 12:30N 40°40' W 074°01'0 0.0
2018-Jun-14 12:00N 40°40' W 074°01'0 0.0
2018-Jun-14 11:30N 40°40' W 074°01'0 0.0
2018-Jun-14 11:00N 40°40' W 074°01'0 0.0
2018-Jun-14 10:31N 40°40' W 074°01'0 0.0
2018-Jun-14 10:00N 40°40' W 074°01'0 0.0
2018-Jun-13 23:50N 40°40' W 074°01'3 8.1
2018-Jun-13 23:30N 40°42' W 073°59'4 7.6
2018-Jun-13 23:00N 40°46' W 073°57'2 3.5
2018-Jun-13 22:30N 40°45' W 073°58'2 4.3
2018-Jun-13 22:00N 40°43' W 073°59'4 7.3
2018-Jun-13 21:26N 40°46' W 073°56'2 5.2
2018-Jun-13 21:00N 40°45' W 073°58'3 5.8
2018-Jun-13 20:30N 40°42' W 074°00'2 3.9
2018-Jun-13 20:00N 40°40' W 074°01'0 0.0
2018-Jun-13 19:30N 40°40' W 074°01'0 0.0
2018-Jun-13 19:00N 40°40' W 074°01'0 0.0
2018-Jun-13 18:30N 40°40' W 074°01'0 0.0
2018-Jun-13 18:00N 40°40' W 074°01'0 0.0
2018-Jun-13 17:30N 40°40' W 074°01'0 0.0
2018-Jun-13 17:00N 40°40' W 074°01'0 0.0
2018-Jun-13 16:30N 40°40' W 074°01'0 0.0
2018-Jun-13 16:00N 40°40' W 074°01'0 0.0
2018-Jun-13 15:30N 40°40' W 074°01'0 0.0
2018-Jun-13 15:00N 40°40' W 074°01'0 0.0
2018-Jun-13 14:30N 40°40' W 074°01'0 0.2
2018-Jun-13 14:00N 40°40' W 074°01'5 9.8
2018-Jun-13 13:30N 40°45' W 073°58'2 4.3
2018-Jun-13 12:59N 40°46' W 073°56'4 7.5
2018-Jun-13 12:31N 40°43' W 073°58'2 3.4
2018-Jun-13 12:00N 40°45' W 073°58'1 2.2
2018-Jun-13 11:31N 40°44' W 073°58'4 5.6
2018-Jun-13 10:47N 40°40' W 074°01'0 0.0
2018-Jun-13 10:31N 40°40' W 074°01'0 0.0
2018-Jun-13 10:00N 40°40' W 074°01'0 0.0
2018-Jun-12 23:44N 40°40' W 074°01'0 0.0
2018-Jun-12 23:30N 40°40' W 074°01'2 4.2
2018-Jun-12 23:01N 40°42' W 074°00'3 5.4
2018-Jun-12 22:22N 40°46' W 074°00'412.3
2018-Jun-12 22:01N 40°42' W 074°02'1 1.5
2018-Jun-12 21:31N 40°42' W 074°01'2 3.4
2018-Jun-12 21:00N 40°44' W 074°01'2 3.6
2018-Jun-12 20:30N 40°42' W 074°00'3 6.7
2018-Jun-12 19:59N 40°46' W 074°00'4 7.4
2018-Jun-12 19:31N 40°42' W 073°60'3 6.7
2018-Jun-12 19:00N 40°46' W 074°01'4 8.6
2018-Jun-12 18:30N 40°41' W 074°02'1 2.4
2018-Jun-12 18:00N 40°42' W 074°01'3 6.6
2018-Jun-12 17:31N 40°45' W 074°01'3 6.6
2018-Jun-12 17:01N 40°42' W 073°60'4 7.0
2018-Jun-12 16:30N 40°46' W 074°00'4 8.6
2018-Jun-12 16:00N 40°42' W 074°02'1 1.9
2018-Jun-12 15:31N 40°42' W 074°01'2 4.4
2018-Jun-12 15:00N 40°44' W 074°01'2 4.4
2018-Jun-12 14:30N 40°42' W 074°00'2 4.2
2018-Jun-12 14:00N 40°40' W 074°01'0 0.0
2018-Jun-12 13:31N 40°40' W 074°01'0 0.0
2018-Jun-12 13:01N 40°40' W 074°01'0 0.0
2018-Jun-12 12:30N 40°40' W 074°01'0 0.0
2018-Jun-12 12:01N 40°40' W 074°01'0 0.0
2018-Jun-11 18:58N 40°40' W 074°01'0 0.0
2018-Jun-11 18:30N 40°40' W 074°01'0 0.0
2018-Jun-11 17:58N 40°40' W 074°01'0 0.0
2018-Jun-11 17:29N 40°40' W 074°01'0 0.0
2018-Jun-11 16:57N 40°40' W 074°01'0 0.0
2018-Jun-10 23:08N 40°40' W 074°01'0 0.0
2018-Jun-10 23:00N 40°40' W 074°01'2 4.0
2018-Jun-10 22:31N 40°42' W 074°01'0 0.8
2018-Jun-10 22:01N 40°42' W 074°02'1 0.9
2018-Jun-10 21:28N 40°42' W 074°01'3 6.6
2018-Jun-10 21:01N 40°45' W 074°01'3 6.1
2018-Jun-10 20:30N 40°42' W 073°60'3 6.8
2018-Jun-10 20:00N 40°46' W 074°01'4 9.1
2018-Jun-10 19:31N 40°41' W 074°02'1 2.8
2018-Jun-10 19:01N 40°42' W 074°01'1 2.2
2018-Jun-10 18:30N 40°43' W 074°01'1 2.8
2018-Jun-10 18:00N 40°42' W 074°00'3 6.0
2018-Jun-10 17:27N 40°46' W 074°00'3 7.7
2018-Jun-10 17:00N 40°42' W 073°60'4 7.0
2018-Jun-10 16:30N 40°46' W 074°00'510.1
2018-Jun-10 16:01N 40°41' W 074°03'2 3.1
2018-Jun-10 15:31N 40°42' W 074°01'2 3.5
2018-Jun-10 15:01N 40°44' W 074°01'2 3.8
2018-Jun-10 14:30N 40°42' W 074°00'2 1.9
2018-Jun-10 13:30N 40°41' W 074°02'1 1.2
2018-Jun-10 13:00N 40°40' W 074°01'0 0.0
2018-Jun-10 12:30N 40°40' W 074°01'  

Dump ship's entire track history